Time;durP1;ratioP1;P1;durP2;ratioP2;P2;SDS_P1;SDS_P2;PMS_P1;PMS_P2;Temp;Humidity;BMP_temperature;BMP_pressure;BME280_temperature;BME280_humidity;BME280_pressure;Samples;Min_cycle;Max_cycle;Signal;HPM_P1;HPM_P2
2021/04/10 00:02:13;;;;;;;15.50;5.22;;;7.60;91.90;;;;;;5034106;28;20410;-80
2021/04/10 00:04:39;;;;;;;16.27;4.55;;;7.60;91.90;;;;;;5054548;28;20035;-81
2021/04/10 00:07:06;;;;;;;17.38;4.65;;;7.60;91.90;;;;;;5037615;28;20051;-80
2021/04/10 00:09:33;;;;;;;14.75;5.13;;;7.60;91.90;;;;;;5070515;28;20035;-80
2021/04/10 00:12:01;;;;;;;13.30;4.35;;;7.50;91.80;;;;;;5052830;28;20036;-80
2021/04/10 00:14:28;;;;;;;15.93;4.65;;;7.50;91.90;;;;;;5053982;28;20044;-80
2021/04/10 00:16:54;;;;;;;17.50;6.95;;;7.50;92.00;;;;;;5053833;28;20047;-81
2021/04/10 00:19:21;;;;;;;17.70;4.78;;;7.40;92.30;;;;;;5037601;28;20517;-83
2021/04/10 00:21:48;;;;;;;34.22;15.65;;;7.30;92.40;;;;;;5064613;28;20036;-81
2021/04/10 00:24:15;;;;;;;35.53;15.70;;;7.30;92.70;;;;;;5066287;28;20044;-81
2021/04/10 00:26:41;;;;;;;38.17;18.33;;;7.20;92.80;;;;;;5068079;28;20028;-80
2021/04/10 00:29:08;;;;;;;16.27;5.93;;;7.20;92.90;;;;;;5085934;28;20044;-81
2021/04/10 00:31:35;;;;;;;14.40;5.10;;;7.10;93.00;;;;;;5053429;28;20509;-82
2021/04/10 00:34:01;;;;;;;25.02;6.85;;;7.10;93.00;;;;;;5081804;28;20052;-81
2021/04/10 00:36:28;;;;;;;20.17;5.28;;;7.10;93.10;;;;;;5067161;28;20047;-80
2021/04/10 00:38:54;;;;;;;20.55;4.65;;;7.00;93.10;;;;;;5047149;28;20404;-81
2021/04/10 00:41:21;;;;;;;19.77;5.47;;;7.00;93.10;;;;;;5065638;28;20032;-80
2021/04/10 00:43:48;;;;;;;15.13;4.07;;;7.00;93.10;;;;;;5064845;28;20032;-81
2021/04/10 00:46:15;;;;;;;15.40;4.03;;;6.90;93.10;;;;;;5081199;28;20059;-82
2021/04/10 00:48:44;;;;;;;13.55;3.13;;;7.00;93.00;;;;;;5048345;28;20537;-80
2021/04/10 00:51:11;;;;;;;37.60;17.77;;;7.00;93.00;;;;;;5016042;28;20047;-80
2021/04/10 00:53:39;;;;;;;32.42;14.50;;;7.00;93.00;;;;;;5049927;28;20047;-80
2021/04/10 00:56:07;;;;;;;23.27;10.45;;;7.00;92.90;;;;;;5051406;28;20055;-82
2021/04/10 00:58:38;;;;;;;;;;;6.90;92.90;;;;;;5067702;28;20395;-80
2021/04/10 01:01:06;;;;;;;12.90;3.50;;;6.90;92.90;;;;;;5051638;28;19920;-80
2021/04/10 01:03:35;;;;;;;13.05;3.78;;;6.90;92.90;;;;;;5068433;28;20051;-80
2021/04/10 01:06:03;;;;;;;20.75;5.13;;;6.90;92.80;;;;;;5035983;28;20040;-80
2021/04/10 01:08:30;;;;;;;15.37;3.83;;;6.90;93.20;;;;;;5056199;28;20036;-79
2021/04/10 01:11:18;;;;;;;13.90;3.20;;;6.80;93.00;;;;;;5076004;28;20035;-80
2021/04/10 01:13:51;;;;;;;10.93;3.85;;;6.80;93.00;;;;;;5052715;28;20032;-80
2021/04/10 01:16:19;;;;;;;;;;;6.80;93.10;;;;;;5093589;28;20564;-80
2021/04/10 01:19:17;;;;;;;17.87;3.77;;;6.80;93.10;;;;;;5051904;28;19939;-80
2021/04/10 01:21:52;;;;;;;13.52;3.13;;;6.80;93.20;;;;;;5051199;28;20518;-80
2021/04/10 01:24:48;;;;;;;9.63;2.60;;;6.70;93.10;;;;;;5085321;28;20071;-80
2021/04/10 01:27:41;;;;;;;15.07;2.95;;;6.70;93.10;;;;;;5082012;28;20424;-80
2021/04/10 01:30:13;;;;;;;9.70;3.43;;;6.70;93.10;;;;;;5082506;28;20511;-80
2021/04/10 01:32:46;;;;;;;13.60;3.40;;;6.70;93.10;;;;;;5080534;28;20048;-80
2021/04/10 01:35:15;;;;;;;11.68;3.47;;;6.70;93.10;;;;;;5066152;28;20059;-80
2021/04/10 01:37:55;;;;;;;11.80;3.17;;;6.70;93.10;;;;;;5067416;28;20047;-80
2021/04/10 01:40:24;;;;;;;9.57;2.35;;;6.80;93.20;;;;;;5076619;28;20048;-80
2021/04/10 01:42:55;;;;;;;14.30;3.07;;;6.70;93.10;;;;;;5066618;28;20040;-80
2021/04/10 01:45:27;;;;;;;14.60;4.05;;;6.80;93.00;;;;;;5053811;28;20050;-80
2021/04/10 01:48:02;;;;;;;12.40;4.00;;;6.80;93.00;;;;;;5087111;28;20048;-80
2021/04/10 01:50:35;;;;;;;11.68;4.03;;;6.70;93.00;;;;;;5072487;28;20531;-80
2021/04/10 01:53:04;;;;;;;16.73;4.20;;;6.70;93.00;;;;;;5065830;28;20051;-80
2021/04/10 01:55:35;;;;;;;18.02;3.92;;;6.70;93.10;;;;;;5069835;28;20059;-80
2021/04/10 01:58:02;;;;;;;11.27;2.67;;;6.60;93.20;;;;;;5086786;28;20047;-80
2021/04/10 02:00:34;;;;;;;18.57;4.50;;;6.60;93.30;;;;;;5068376;28;20059;-80
2021/04/10 02:03:05;;;;;;;14.13;4.50;;;6.60;93.40;;;;;;5066700;28;20058;-80
2021/04/10 02:05:35;;;;;;;15.80;4.00;;;6.50;93.50;;;;;;5084062;28;20051;-80
2021/04/10 02:08:25;;;;;;;12.80;3.30;;;6.60;93.50;;;;;;5084547;28;20070;-80
2021/04/10 02:10:53;;;;;;;13.53;3.03;;;6.60;93.50;;;;;;5051034;28;20070;-80
2021/04/10 02:13:35;;;;;;;13.87;3.60;;;6.60;93.50;;;;;;5054644;28;20473;-80
2021/04/10 02:16:03;;;;;;;12.32;3.67;;;6.60;93.50;;;;;;5068048;28;20043;-80
2021/04/10 02:18:36;;;;;;;15.13;3.87;;;6.60;93.50;;;;;;5052180;28;20399;-81
2021/04/10 02:21:11;;;;;;;12.77;3.43;;;6.50;93.40;;;;;;5066585;28;20048;-80
2021/04/10 02:23:41;;;;;;;12.23;3.10;;;6.50;93.50;;;;;;5036398;28;20490;-81
2021/04/10 02:26:20;;;;;;;14.80;3.75;;;6.50;93.50;;;;;;5054841;28;20044;-80
2021/04/10 02:28:48;;;;;;;13.83;3.90;;;6.40;93.50;;;;;;5085700;28;20371;-80
2021/04/10 02:31:29;;;;;;;14.00;4.50;;;6.40;93.60;;;;;;5068205;28;20044;-80
2021/04/10 02:34:07;;;;;;;18.10;4.60;;;6.40;93.70;;;;;;5066712;28;20059;-80
2021/04/10 02:36:38;;;;;;;9.50;3.13;;;6.40;93.70;;;;;;5055490;28;20043;-80
2021/04/10 02:39:06;;;;;;;15.40;4.40;;;6.30;93.70;;;;;;5072598;28;20063;-80
2021/04/10 02:41:35;;;;;;;16.20;4.50;;;6.30;93.80;;;;;;5044125;28;20403;-80
2021/04/10 02:44:06;;;;;;;14.20;4.33;;;6.30;93.80;;;;;;5070009;28;20056;-80
2021/04/10 02:46:39;;;;;;;18.30;4.60;;;6.30;93.90;;;;;;5084742;28;20043;-80
2021/04/10 02:49:11;;;;;;;17.27;5.03;;;6.30;94.00;;;;;;5075482;28;20051;-80
2021/04/10 02:51:48;;;;;;;23.47;5.30;;;6.20;94.20;;;;;;5064892;28;20486;-80
2021/04/10 02:54:20;;;;;;;11.02;3.50;;;6.20;94.20;;;;;;5055166;28;20048;-80
2021/04/10 02:57:02;;;;;;;10.77;4.23;;;6.20;94.20;;;;;;5051813;28;20032;-80
2021/04/10 02:59:31;;;;;;;17.97;4.27;;;6.20;94.20;;;;;;5078289;28;20052;-80
2021/04/10 03:01:59;;;;;;;13.50;3.90;;;6.20;94.20;;;;;;5053088;28;20139;-80
2021/04/10 03:04:29;;;;;;;11.50;4.13;;;6.20;94.20;;;;;;5054834;28;20040;-80
2021/04/10 03:06:57;;;;;;;14.37;4.40;;;6.20;94.20;;;;;;5070105;28;20052;-79
2021/04/10 03:09:25;;;;;;;14.13;3.80;;;6.20;94.20;;;;;;5071316;28;20044;-79
2021/04/10 03:11:52;;;;;;;14.50;4.47;;;6.20;94.20;;;;;;5036552;28;20036;-79
2021/04/10 03:14:19;;;;;;;17.40;3.83;;;6.10;94.20;;;;;;5054475;28;20908;-79
2021/04/10 03:16:47;;;;;;;13.57;4.37;;;6.10;94.20;;;;;;5071197;28;20036;-79
2021/04/10 03:19:20;;;;;;;15.77;5.07;;;6.10;94.30;;;;;;5039558;28;20490;-79
2021/04/10 03:21:53;;;;;;;16.98;4.38;;;6.10;94.30;;;;;;5029453;28;20063;-79
2021/04/10 03:24:19;;;;;;;14.70;4.43;;;6.10;94.30;;;;;;5016249;28;20037;-79
2021/04/10 03:26:48;;;;;;;18.23;5.30;;;6.10;94.30;;;;;;5030479;28;20033;-79
2021/04/10 03:29:23;;;;;;;14.67;5.23;;;6.10;94.40;;;;;;5016748;28;20690;-79
2021/04/10 03:31:53;;;;;;;13.13;4.20;;;6.00;94.50;;;;;;5011644;28;20839;-79
2021/04/10 03:34:20;;;;;;;14.37;4.50;;;6.00;94.50;;;;;;5046202;28;20037;-79
2021/04/10 03:36:47;;;;;;;11.77;4.63;;;6.00;94.50;;;;;;5029592;28;20049;-79
2021/04/10 03:39:16;;;;;;;12.40;4.30;;;6.00;94.50;;;;;;5047357;28;20053;-79
2021/04/10 03:41:50;;;;;;;16.67;5.30;;;6.00;94.50;;;;;;5016927;28;20059;-79
2021/04/10 03:44:19;;;;;;;19.57;5.73;;;6.00;94.50;;;;;;5015004;28;20044;-79
2021/04/10 03:46:49;;;;;;;16.13;4.23;;;6.00;94.60;;;;;;5013411;28;20040;-79
2021/04/10 03:49:16;;;;;;;16.07;4.67;;;6.00;94.70;;;;;;5046934;28;20048;-80
2021/04/10 03:51:43;;;;;;;12.77;5.43;;;6.00;94.70;;;;;;5027431;28;20048;-79
2021/04/10 03:54:10;;;;;;;15.13;4.97;;;6.00;94.70;;;;;;5050026;28;20071;-79
2021/04/10 03:56:39;;;;;;;17.03;5.50;;;5.90;94.80;;;;;;5032103;28;20032;-79
2021/04/10 03:59:15;;;;;;;18.03;6.47;;;5.90;94.80;;;;;;5000244;28;20037;-79
2021/04/10 04:01:53;;;;;;;15.40;5.50;;;5.90;94.90;;;;;;5032018;28;20578;-79
2021/04/10 04:04:24;;;;;;;10.77;4.77;;;5.90;94.80;;;;;;5033635;28;20060;-79
2021/04/10 04:06:51;;;;;;;15.67;6.27;;;5.90;94.80;;;;;;5029424;28;20060;-79
2021/04/10 04:09:17;;;;;;;20.63;6.30;;;6.00;94.80;;;;;;4995527;28;20403;-79
2021/04/10 04:11:44;;;;;;;25.60;8.70;;;6.00;94.80;;;;;;5026833;28;20488;-79
2021/04/10 04:14:10;;;;;;;21.83;7.43;;;6.00;95.00;;;;;;5033978;28;20049;-79
2021/04/10 04:16:37;;;;;;;17.90;6.73;;;6.00;94.90;;;;;;5043026;28;20152;-79
2021/04/10 04:19:03;;;;;;;18.77;6.33;;;6.00;94.90;;;;;;5029822;28;20036;-79
2021/04/10 04:21:30;;;;;;;19.23;7.10;;;6.00;94.90;;;;;;5048188;28;20039;-79
2021/04/10 04:23:56;;;;;;;17.17;5.70;;;6.00;94.90;;;;;;5035320;28;20044;-79
2021/04/10 04:26:23;;;;;;;17.57;6.07;;;6.00;94.90;;;;;;5054259;28;20032;-79
2021/04/10 04:28:50;;;;;;;16.50;7.03;;;6.00;94.90;;;;;;5052683;28;20391;-79
2021/04/10 04:31:17;;;;;;;17.77;6.70;;;6.00;94.90;;;;;;5036127;28;20036;-79
2021/04/10 04:33:43;;;;;;;16.80;6.30;;;6.00;94.90;;;;;;5067347;28;20399;-79
2021/04/10 04:36:10;;;;;;;18.07;6.80;;;6.00;94.90;;;;;;5049409;28;20870;-79
2021/04/10 04:38:36;;;;;;;22.63;6.00;;;5.90;94.80;;;;;;5036443;28;20074;-79
2021/04/10 04:41:03;;;;;;;14.97;6.00;;;5.90;94.80;;;;;;5018099;28;20040;-79
2021/04/10 04:43:29;;;;;;;18.17;5.67;;;5.90;94.80;;;;;;5039036;28;20040;-79
2021/04/10 04:45:56;;;;;;;14.70;5.13;;;6.00;94.80;;;;;;5063942;28;20052;-79
2021/04/10 04:48:22;;;;;;;14.27;5.67;;;6.00;94.70;;;;;;5034250;28;20031;-79
2021/04/10 04:50:49;;;;;;;12.07;4.93;;;6.00;94.60;;;;;;5088975;28;20044;-80
2021/04/10 04:53:16;;;;;;;12.37;4.90;;;6.00;94.50;;;;;;5047480;28;20493;-79
2021/04/10 04:55:43;;;;;;;19.87;5.20;;;6.00;94.50;;;;;;5035755;28;20494;-80
2021/04/10 04:58:12;;;;;;;11.83;5.43;;;6.00;94.50;;;;;;5032125;28;20032;-81
2021/04/10 05:00:42;;;;;;;16.23;4.37;;;6.00;94.40;;;;;;5050467;28;20402;-81
2021/04/10 05:03:11;;;;;;;83.03;50.57;;;6.00;94.40;;;;;;5017755;28;20067;-79
2021/04/10 05:05:38;;;;;;;22.33;11.73;;;6.00;94.40;;;;;;5050608;28;20044;-79
2021/04/10 05:08:04;;;;;;;16.73;8.53;;;6.00;94.40;;;;;;5044797;28;20054;-80
2021/04/10 05:10:31;;;;;;;18.40;8.03;;;6.00;94.40;;;;;;5084112;28;20375;-80
2021/04/10 05:12:58;;;;;;;14.47;5.63;;;6.00;94.40;;;;;;5051254;28;20127;-80
2021/04/10 05:15:24;;;;;;;15.57;4.40;;;6.00;94.30;;;;;;5065776;28;20050;-80
2021/04/10 05:17:51;;;;;;;12.55;4.90;;;6.00;94.30;;;;;;5048181;28;20040;-79
2021/04/10 05:20:17;;;;;;;19.43;7.17;;;6.00;94.20;;;;;;5065576;28;20040;-79
2021/04/10 05:22:44;;;;;;;17.90;6.00;;;6.00;94.20;;;;;;5048376;28;20035;-78
2021/04/10 05:25:11;;;;;;;16.77;5.27;;;6.00;94.30;;;;;;5067201;28;20040;-79
2021/04/10 05:27:37;;;;;;;12.10;4.57;;;6.00;94.20;;;;;;5031547;28;20040;-79
2021/04/10 05:30:07;;;;;;;16.83;5.70;;;6.00;94.20;;;;;;5066655;28;20052;-79
2021/04/10 05:32:34;;;;;;;16.67;5.43;;;6.00;94.20;;;;;;5032552;28;20051;-79
2021/04/10 05:35:00;;;;;;;17.77;4.57;;;6.10;94.20;;;;;;5068692;28;20040;-79
2021/04/10 05:37:27;;;;;;;16.30;4.80;;;6.10;94.10;;;;;;5051820;28;20395;-79
2021/04/10 05:39:53;;;;;;;13.67;4.43;;;6.00;94.10;;;;;;5050653;28;20028;-79
2021/04/10 05:42:20;;;;;;;20.03;4.67;;;6.10;94.00;;;;;;5067839;28;20035;-79
2021/04/10 05:44:46;;;;;;;16.97;4.40;;;6.10;94.20;;;;;;5049116;28;20079;-79
2021/04/10 05:47:13;;;;;;;17.73;5.13;;;6.10;93.90;;;;;;5048359;28;20391;-79
2021/04/10 05:49:39;;;;;;;13.97;4.50;;;6.20;93.80;;;;;;5030630;28;20052;-78
2021/04/10 05:52:06;;;;;;;18.73;6.97;;;6.20;93.70;;;;;;5047576;28;20398;-80
2021/04/10 05:54:32;;;;;;;18.93;5.40;;;6.20;93.60;;;;;;5049631;28;20047;-81
2021/04/10 05:56:59;;;;;;;14.87;3.90;;;6.30;93.50;;;;;;5046821;28;20039;-79
2021/04/10 05:59:26;;;;;;;16.80;4.47;;;6.40;93.30;;;;;;5050180;28;20398;-79
2021/04/10 06:01:52;;;;;;;16.10;3.67;;;6.40;93.00;;;;;;5066933;28;20040;-79
2021/04/10 06:04:19;;;;;;;11.83;4.30;;;6.40;92.90;;;;;;5086528;28;20382;-79
2021/04/10 06:06:45;;;;;;;11.97;3.90;;;6.50;92.80;;;;;;5083273;28;20044;-79
2021/04/10 06:09:12;;;;;;;14.52;3.95;;;6.50;92.70;;;;;;5031296;28;20059;-79
2021/04/10 06:11:38;;;;;;;16.87;4.13;;;6.50;92.60;;;;;;5046358;28;20047;-79
2021/04/10 06:14:05;;;;;;;17.47;5.53;;;6.50;92.50;;;;;;5038878;28;20036;-79
2021/04/10 06:16:31;;;;;;;18.10;4.30;;;6.50;92.50;;;;;;5066291;28;20048;-79
2021/04/10 06:18:58;;;;;;;13.25;4.15;;;6.50;92.60;;;;;;5050116;28;20044;-80
2021/04/10 06:21:25;;;;;;;13.13;3.73;;;6.50;92.60;;;;;;5015626;28;20052;-79
2021/04/10 06:23:52;;;;;;;17.00;5.63;;;6.60;92.50;;;;;;5081437;28;20063;-79
2021/04/10 06:26:18;;;;;;;17.57;4.83;;;6.70;92.50;;;;;;5030743;28;20044;-79
2021/04/10 06:28:45;;;;;;;17.37;4.90;;;6.70;92.60;;;;;;5013996;28;20041;-79
2021/04/10 06:31:11;;;;;;;13.10;3.70;;;6.70;92.20;;;;;;5013721;28;20032;-79
2021/04/10 06:33:41;;;;;;;12.60;4.10;;;6.80;92.10;;;;;;5083686;28;20058;-79
2021/04/10 06:36:07;;;;;;;15.13;3.90;;;6.80;92.10;;;;;;5081587;28;20517;-80
2021/04/10 06:38:34;;;;;;;15.73;3.58;;;6.90;91.90;;;;;;5083286;28;20040;-79
2021/04/10 06:41:00;;;;;;;11.68;3.38;;;6.90;91.80;;;;;;5065578;28;20498;-79
2021/04/10 06:43:27;;;;;;;9.50;3.20;;;7.00;91.70;;;;;;5064745;28;20588;-79
2021/04/10 06:45:55;;;;;;;13.63;3.63;;;7.00;91.60;;;;;;5049656;28;20395;-79
2021/04/10 06:48:25;;;;;;;10.13;3.63;;;7.10;91.50;;;;;;5084320;28;20044;-79
2021/04/10 06:50:52;;;;;;;12.68;3.47;;;7.00;91.20;;;;;;5065669;28;20111;-79
2021/04/10 06:53:20;;;;;;;12.50;3.53;;;7.10;91.10;;;;;;5082543;28;20048;-79
2021/04/10 06:55:54;;;;;;;21.90;5.13;;;7.10;91.00;;;;;;5078079;28;20048;-79
2021/04/10 06:58:34;;;;;;;12.35;3.20;;;7.00;91.20;;;;;;5080025;28;20055;-79
2021/04/10 07:01:02;;;;;;;14.27;3.53;;;7.00;90.90;;;;;;5064966;28;20043;-79
2021/04/10 07:03:32;;;;;;;9.43;3.00;;;7.00;90.70;;;;;;5032628;28;20055;-79
2021/04/10 07:05:59;;;;;;;11.03;2.97;;;7.00;90.80;;;;;;5048835;28;20036;-80
2021/04/10 07:08:26;;;;;;;14.57;3.78;;;7.10;90.80;;;;;;5081140;28;20052;-80
2021/04/10 07:10:54;;;;;;;10.63;3.00;;;7.10;90.60;;;;;;5064760;28;20040;-80
2021/04/10 07:13:21;;;;;;;10.07;3.10;;;7.10;90.60;;;;;;5061937;28;20052;-80
2021/04/10 07:15:48;;;;;;;7.47;2.33;;;7.20;90.50;;;;;;5048843;28;20051;-80
2021/04/10 07:18:17;;;;;;;16.23;2.40;;;7.20;90.50;;;;;;5081552;28;20055;-80
2021/04/10 07:20:44;;;;;;;11.82;2.58;;;7.30;90.80;;;;;;5050583;28;20058;-80
2021/04/10 07:23:15;;;;;;;9.30;2.78;;;7.40;90.50;;;;;;5067399;28;20047;-80
2021/04/10 07:25:45;;;;;;;10.02;3.17;;;7.40;90.10;;;;;;5053490;28;20111;-80
2021/04/10 07:28:28;;;;;;;10.38;2.83;;;7.40;90.00;;;;;;5072897;28;20035;-80
2021/04/10 07:31:15;;;;;;;13.50;2.75;;;7.40;90.20;;;;;;5058129;28;20040;-80
2021/04/10 07:33:43;;;;;;;10.25;2.38;;;7.50;90.20;;;;;;5065812;28;20504;-80
2021/04/10 07:36:16;;;;;;;9.75;2.90;;;7.50;90.00;;;;;;5053020;28;20033;-80
2021/04/10 07:38:44;;;;;;;11.23;2.70;;;7.60;89.80;;;;;;5085407;28;20048;-79
2021/04/10 07:41:13;;;;;;;9.85;2.97;;;7.60;90.10;;;;;;5065042;28;20471;-79
2021/04/10 07:43:42;;;;;;;13.05;2.20;;;7.70;89.80;;;;;;5082819;28;20040;-80
2021/04/10 07:46:21;;;;;;;11.45;2.55;;;7.80;89.30;;;;;;5067222;28;20586;-80
2021/04/10 07:49:08;;;;;;;8.52;1.88;;;7.90;89.00;;;;;;5067764;28;20136;-80
2021/04/10 07:51:54;;;;;;;8.55;1.95;;;8.00;88.90;;;;;;5087024;28;20035;-80
2021/04/10 07:54:29;;;;;;;9.60;2.17;;;8.20;88.10;;;;;;5088746;28;20044;-79
2021/04/10 07:56:57;;;;;;;10.85;3.35;;;8.30;87.20;;;;;;5063225;28;20064;-79
2021/04/10 07:59:27;;;;;;;19.65;5.70;;;8.40;86.80;;;;;;5084448;28;20506;-81
2021/04/10 08:02:07;;;;;;;10.95;2.60;;;8.50;86.60;;;;;;5080328;28;20048;-79
2021/04/10 08:04:33;;;;;;;13.10;2.58;;;8.50;85.70;;;;;;5077442;28;20040;-78
2021/04/10 08:07:00;;;;;;;8.15;1.60;;;8.60;85.60;;;;;;5049272;28;20060;-79
2021/04/10 08:09:31;;;;;;;9.57;2.15;;;8.60;84.60;;;;;;5037464;28;20047;-78
2021/04/10 08:11:58;;;;;;;12.05;2.00;;;8.60;84.80;;;;;;5048423;28;20036;-78
2021/04/10 08:14:37;;;;;;;7.13;1.83;;;8.60;85.10;;;;;;5069082;28;20047;-79
2021/04/10 08:17:05;;;;;;;7.47;1.38;;;8.70;85.10;;;;;;5082164;28;20051;-79
2021/04/10 08:19:32;;;;;;;10.95;1.92;;;8.70;85.20;;;;;;5068029;28;20035;-79
2021/04/10 08:21:59;;;;;;;10.10;1.83;;;8.80;84.90;;;;;;5084313;28;20051;-80
2021/04/10 08:24:43;;;;;;;9.73;1.85;;;8.90;84.40;;;;;;5070350;28;20040;-80
2021/04/10 08:27:14;;;;;;;9.75;2.17;;;8.90;83.70;;;;;;5050730;28;20466;-77
2021/04/10 08:29:43;;;;;;;12.35;2.33;;;8.90;83.60;;;;;;5079626;28;20036;-79
2021/04/10 08:32:10;;;;;;;8.82;1.67;;;9.00;83.40;;;;;;5050632;28;20478;-79
2021/04/10 08:34:38;;;;;;;9.80;2.40;;;9.00;83.10;;;;;;5052149;28;20043;-79
2021/04/10 08:37:08;;;;;;;8.23;1.58;;;9.10;82.30;;;;;;5067771;28;20063;-79
2021/04/10 08:39:42;;;;;;;12.05;1.90;;;9.20;82.50;;;;;;5047567;28;20055;-79
2021/04/10 08:42:12;;;;;;;8.80;1.90;;;9.20;82.30;;;;;;5081431;28;20048;-79
2021/04/10 08:44:40;;;;;;;8.68;2.22;;;9.40;82.60;;;;;;5057907;28;20042;-80
2021/04/10 08:47:07;;;;;;;9.95;2.15;;;9.50;82.20;;;;;;5067465;28;20035;-79
2021/04/10 08:49:38;;;;;;;9.95;1.75;;;9.60;81.30;;;;;;5049249;28;20028;-79
2021/04/10 08:52:08;;;;;;;14.77;2.47;;;9.60;81.00;;;;;;5053131;28;20039;-79
2021/04/10 08:54:39;;;;;;;10.57;2.22;;;9.70;80.80;;;;;;5050108;28;20391;-79
2021/04/10 08:57:11;;;;;;;12.13;2.50;;;9.70;80.30;;;;;;5081460;28;20035;-79
2021/04/10 08:59:42;;;;;;;8.32;2.17;;;9.80;80.40;;;;;;5051651;28;20040;-79
2021/04/10 09:02:16;;;;;;;13.80;2.13;;;9.90;80.20;;;;;;5050518;28;20509;-79
2021/04/10 09:04:52;;;;;;;8.73;1.90;;;9.90;79.10;;;;;;5083520;28;20048;-80
2021/04/10 09:07:19;;;;;;;11.30;1.75;;;10.00;78.80;;;;;;5085563;28;20040;-80
2021/04/10 09:09:48;;;;;;;12.57;2.10;;;9.90;78.50;;;;;;5036210;28;20036;-80
2021/04/10 09:12:24;;;;;;;8.73;1.65;;;10.00;79.00;;;;;;5033819;28;20051;-79
2021/04/10 09:14:51;;;;;;;9.30;2.67;;;10.20;79.00;;;;;;5070047;28;20043;-79
2021/04/10 09:17:17;;;;;;;11.07;1.73;;;10.40;78.40;;;;;;5039889;28;20047;-80
2021/04/10 09:19:45;;;;;;;8.27;1.48;;;10.60;77.30;;;;;;5066158;28;20052;-80
2021/04/10 09:22:17;;;;;;;9.80;2.28;;;10.60;76.70;;;;;;5053091;28;20059;-80
2021/04/10 09:24:46;;;;;;;11.63;1.95;;;10.70;76.90;;;;;;5050842;28;20043;-80
2021/04/10 09:27:24;;;;;;;12.23;1.50;;;10.70;76.20;;;;;;5082975;28;20040;-79
2021/04/10 09:30:04;;;;;;;8.38;1.17;;;10.80;75.60;;;;;;5084007;28;20063;-81
2021/04/10 09:32:46;;;;;;;8.50;1.30;;;10.80;75.40;;;;;;5065303;28;20028;-81
2021/04/10 09:35:18;;;;;;;12.30;1.90;;;10.60;74.40;;;;;;5050894;28;20095;-81
2021/04/10 09:37:47;;;;;;;8.00;1.83;;;10.30;74.50;;;;;;5049488;28;20035;-81
2021/04/10 09:40:23;;;;;;;12.02;1.98;;;10.10;75.70;;;;;;5052339;28;20050;-81
2021/04/10 09:43:05;;;;;;;10.27;1.73;;;9.90;76.00;;;;;;5080706;28;20036;-84
2021/04/10 09:45:37;;;;;;;7.63;2.10;;;9.70;76.40;;;;;;5052089;28;20048;-80
2021/04/10 09:48:04;;;;;;;8.68;2.60;;;9.60;77.30;;;;;;5072025;28;20281;-82
2021/04/10 09:50:31;;;;;;;10.60;1.92;;;9.50;78.00;;;;;;5067923;28;20043;-80
2021/04/10 09:53:13;;;;;;;9.15;2.20;;;9.40;78.30;;;;;;5050764;28;20028;-82
2021/04/10 09:55:59;;;;;;;9.85;2.25;;;9.40;78.90;;;;;;5064965;28;20036;-80
2021/04/10 09:58:42;;;;;;;7.70;1.77;;;9.50;79.10;;;;;;5085178;28;20688;-81
2021/04/10 10:01:14;;;;;;;11.25;2.13;;;9.70;79.20;;;;;;5083666;28;20059;-80
2021/04/10 10:03:41;;;;;;;10.90;2.30;;;9.90;78.50;;;;;;5065487;28;20075;-79
2021/04/10 10:06:24;;;;;;;11.32;1.92;;;9.90;78.10;;;;;;5084489;28;20032;-80
2021/04/10 10:08:51;;;;;;;10.57;1.92;;;9.80;78.10;;;;;;5048676;28;20047;-79
2021/04/10 10:11:18;;;;;;;8.60;2.55;;;9.80;78.30;;;;;;5054600;28;20028;-80
2021/04/10 10:13:46;;;;;;;10.57;2.80;;;9.70;78.60;;;;;;5076457;28;20051;-79
2021/04/10 10:16:13;;;;;;;10.25;1.98;;;9.70;78.50;;;;;;5064741;28;20028;-79
2021/04/10 10:18:43;;;;;;;11.23;2.70;;;9.60;78.90;;;;;;5081000;28;20051;-80
2021/04/10 10:21:15;;;;;;;6.25;1.95;;;9.60;79.20;;;;;;5046601;28;20048;-79
2021/04/10 10:23:52;;;;;;;8.82;1.92;;;9.70;79.60;;;;;;5083096;28;20036;-79
2021/04/10 10:26:26;;;;;;;10.05;2.60;;;9.70;79.60;;;;;;5065338;28;20367;-81
2021/04/10 10:29:01;;;;;;;11.02;3.03;;;9.80;78.70;;;;;;5082728;28;20501;-83
2021/04/10 10:31:30;;;;;;;11.60;2.38;;;9.70;78.40;;;;;;5083389;28;20409;-80
2021/04/10 10:34:06;;;;;;;8.55;2.10;;;9.60;78.90;;;;;;5067395;28;20035;-80
2021/04/10 10:36:35;;;;;;;10.98;2.05;;;9.60;79.20;;;;;;5085521;28;20051;-80
2021/04/10 10:39:02;;;;;;;8.82;2.20;;;9.60;79.20;;;;;;5050564;28;20040;-83
2021/04/10 10:41:29;;;;;;;10.55;2.33;;;9.60;79.60;;;;;;5052945;28;20032;-80
2021/04/10 10:44:00;;;;;;;9.20;2.17;;;9.60;80.10;;;;;;5053136;28;20052;-80
2021/04/10 10:46:27;;;;;;;15.70;2.15;;;9.60;80.90;;;;;;5047948;28;20039;-79
2021/04/10 10:48:54;;;;;;;12.60;3.20;;;9.60;81.60;;;;;;5048305;28;20039;-80
2021/04/10 10:51:22;;;;;;;12.00;3.42;;;9.60;82.10;;;;;;5031621;28;20036;-80
2021/04/10 10:53:51;;;;;;;9.05;3.13;;;9.60;82.10;;;;;;5047046;28;20040;-79
2021/04/10 10:56:25;;;;;;;12.05;2.92;;;9.50;82.40;;;;;;5067519;28;20399;-80
2021/04/10 10:58:54;;;;;;;16.67;3.50;;;9.50;82.70;;;;;;5052234;28;20041;-80
2021/04/10 11:01:24;;;;;;;9.52;2.47;;;9.60;82.50;;;;;;5070704;28;20044;-80
2021/04/10 11:04:06;;;;;;;13.30;3.92;;;9.50;82.30;;;;;;5084976;28;20612;-80
2021/04/10 11:06:39;;;;;;;10.07;2.70;;;9.60;82.60;;;;;;5067176;28;20036;-80
2021/04/10 11:09:09;;;;;;;13.82;3.65;;;9.60;82.50;;;;;;5052390;28;20036;-79
2021/04/10 11:11:47;;;;;;;11.63;3.47;;;9.60;82.40;;;;;;5068537;28;20506;-79
2021/04/10 11:14:21;;;;;;;10.88;3.20;;;9.60;82.60;;;;;;5069411;28;20047;-79
2021/04/10 11:16:50;;;;;;;11.23;2.67;;;9.60;82.80;;;;;;5068952;28;20037;-80
2021/04/10 11:19:30;;;;;;;12.15;3.67;;;9.60;82.90;;;;;;5056820;28;20555;-79
2021/04/10 11:21:59;;;;;;;11.77;3.92;;;9.70;83.30;;;;;;5050274;28;20402;-79
2021/04/10 11:24:52;;;;;;;12.02;4.55;;;9.70;83.10;;;;;;5052033;28;20047;-80
2021/04/10 11:27:20;;;;;;;10.20;4.18;;;9.70;82.60;;;;;;5085378;28;20402;-80
2021/04/10 11:29:55;;;;;;;15.45;4.57;;;9.70;82.70;;;;;;5069420;28;20040;-80
2021/04/10 11:32:40;;;;;;;12.95;5.43;;;9.60;83.50;;;;;;5083811;28;20055;-80
2021/04/10 11:35:20;;;;;;;10.23;4.50;;;9.60;83.60;;;;;;5040695;28;20068;-80
2021/04/10 11:37:49;;;;;;;12.20;5.35;;;9.60;84.50;;;;;;5085576;28;20044;-80
2021/04/10 11:40:31;;;;;;;20.30;7.35;;;9.50;85.10;;;;;;5049452;28;20051;-79
2021/04/10 11:43:06;;;;;;;14.65;7.53;;;9.50;85.60;;;;;;5049996;28;20039;-80
2021/04/10 11:45:39;;;;;;;15.13;8.77;;;9.40;85.40;;;;;;5084985;28;20052;-80
2021/04/10 11:48:24;;;;;;;21.17;10.40;;;9.30;86.00;;;;;;5070479;28;20593;-80
2021/04/10 11:50:56;;;;;;;23.75;11.00;;;9.20;86.10;;;;;;5067427;28;20047;-78
2021/04/10 11:53:36;;;;;;;19.15;12.13;;;9.10;87.10;;;;;;5066610;28;20043;-82
2021/04/10 11:56:26;;;;;;;18.70;13.05;;;9.00;88.10;;;;;;5085672;28;20052;-78
2021/04/10 11:59:07;;;;;;;21.55;13.27;;;9.00;88.60;;;;;;5071261;28;20044;-81
2021/04/10 12:01:35;;;;;;;21.65;15.02;;;8.90;89.50;;;;;;5051740;28;20032;-80
2021/04/10 12:04:03;;;;;;;28.70;16.30;;;8.80;90.00;;;;;;5051881;28;20040;-78
2021/04/10 12:06:35;;;;;;;27.90;16.88;;;8.80;90.20;;;;;;5050940;28;20032;-82
2021/04/10 12:09:05;;;;;;;29.00;18.05;;;8.70;90.30;;;;;;5068642;28;20477;-79
2021/04/10 12:11:33;;;;;;;28.95;16.60;;;8.60;90.50;;;;;;5083345;28;20039;-79
2021/04/10 12:13:59;;;;;;;26.65;17.95;;;8.60;90.60;;;;;;5033857;28;20036;-79
2021/04/10 12:16:27;;;;;;;22.15;14.90;;;8.50;90.80;;;;;;5052321;28;20032;-80
2021/04/10 12:18:53;;;;;;;29.70;19.40;;;8.50;91.00;;;;;;5039362;28;20047;-79
2021/04/10 12:21:20;;;;;;;24.48;14.98;;;8.60;91.40;;;;;;5068963;28;20052;-79
2021/04/10 12:23:47;;;;;;;34.25;21.27;;;8.60;91.60;;;;;;5051848;28;20035;-78
2021/04/10 12:26:13;;;;;;;29.02;19.55;;;8.70;91.50;;;;;;5052134;28;20051;-80
2021/04/10 12:28:40;;;;;;;32.85;21.20;;;8.60;91.60;;;;;;5085779;28;20031;-80
2021/04/10 12:31:10;;;;;;;26.05;18.42;;;8.60;92.00;;;;;;5056943;28;20058;-78
2021/04/10 12:33:41;;;;;;;35.45;23.58;;;8.70;92.30;;;;;;5087206;28;20470;-78
2021/04/10 12:36:08;;;;;;;24.98;18.95;;;8.70;92.40;;;;;;5054624;28;20052;-78
2021/04/10 12:38:35;;;;;;;31.85;20.02;;;8.70;92.50;;;;;;5074843;28;20036;-78
2021/04/10 12:41:03;;;;;;;28.15;20.88;;;8.60;92.80;;;;;;5057526;28;20048;-78
2021/04/10 12:43:30;;;;;;;27.50;18.67;;;8.60;93.30;;;;;;5087820;28;20048;-78
2021/04/10 12:45:57;;;;;;;29.98;20.33;;;8.50;93.30;;;;;;5058100;28;20060;-78
2021/04/10 12:48:23;;;;;;;30.50;20.55;;;8.50;93.70;;;;;;5054490;28;20047;-78
2021/04/10 12:50:50;;;;;;;25.85;17.80;;;8.40;94.00;;;;;;5064676;28;20043;-77
2021/04/10 12:53:16;;;;;;;27.67;17.80;;;8.30;94.00;;;;;;5071118;28;20048;-78
2021/04/10 12:55:44;;;;;;;25.80;16.58;;;8.20;94.20;;;;;;5056750;28;20032;-78
2021/04/10 12:58:10;;;;;;;25.48;16.92;;;8.20;94.30;;;;;;5066745;28;20055;-77
2021/04/10 13:00:37;;;;;;;26.52;18.30;;;8.10;94.50;;;;;;5018130;28;20036;-78
2021/04/10 13:03:04;;;;;;;33.03;19.33;;;8.00;94.70;;;;;;5071856;28;20055;-78
2021/04/10 13:05:31;;;;;;;23.97;16.30;;;8.00;94.70;;;;;;5042553;28;20044;-78